sensor_id;sensor_type;location;lat;lon;timestamp;temperature;humidity
6788;DHT22;3431;47.966;10.268;2022-11-15T00:00:04;6.80;99.90
6788;DHT22;3431;47.966;10.268;2022-11-15T00:00:45;6.70;99.90
6788;DHT22;3431;47.966;10.268;2022-11-15T00:01:25;6.70;99.90
6788;DHT22;3431;47.966;10.268;2022-11-15T00:02:06;6.60;99.90
6788;DHT22;3431;47.966;10.268;2022-11-15T00:02:46;6.60;99.90
6788;DHT22;3431;47.966;10.268;2022-11-15T00:03:27;6.50;99.90
6788;DHT22;3431;47.966;10.268;2022-11-15T00:04:09;6.40;99.90
6788;DHT22;3431;47.966;10.268;2022-11-15T00:04:49;6.40;99.90
6788;DHT22;3431;47.966;10.268;2022-11-15T00:05:34;6.40;99.90
6788;DHT22;3431;47.966;10.268;2022-11-15T00:06:14;6.20;99.90
6788;DHT22;3431;47.966;10.268;2022-11-15T00:06:55;6.20;99.90
6788;DHT22;3431;47.966;10.268;2022-11-15T00:07:36;6.20;99.90
6788;DHT22;3431;47.966;10.268;2022-11-15T00:08:16;6.20;99.90
6788;DHT22;3431;47.966;10.268;2022-11-15T00:08:57;6.20;99.90
6788;DHT22;3431;47.966;10.268;2022-11-15T00:09:39;6.10;99.90
6788;DHT22;3431;47.966;10.268;2022-11-15T00:10:19;6.10;99.90
6788;DHT22;3431;47.966;10.268;2022-11-15T00:11:00;6.00;99.90
6788;DHT22;3431;47.966;10.268;2022-11-15T00:11:41;6.10;99.90
6788;DHT22;3431;47.966;10.268;2022-11-15T00:12:21;6.00;99.90
6788;DHT22;3431;47.966;10.268;2022-11-15T00:13:04;6.00;99.90
6788;DHT22;3431;47.966;10.268;2022-11-15T00:13:45;6.00;99.90
6788;DHT22;3431;47.966;10.268;2022-11-15T00:14:25;5.90;99.90
6788;DHT22;3431;47.966;10.268;2022-11-15T00:15:07;6.00;99.90
6788;DHT22;3431;47.966;10.268;2022-11-15T00:15:48;6.10;99.90
6788;DHT22;3431;47.966;10.268;2022-11-15T00:16:28;6.10;99.90
6788;DHT22;3431;47.966;10.268;2022-11-15T00:17:09;6.10;99.90
6788;DHT22;3431;47.966;10.268;2022-11-15T00:17:49;6.10;99.90
6788;DHT22;3431;47.966;10.268;2022-11-15T00:18:32;6.10;99.90
6788;DHT22;3431;47.966;10.268;2022-11-15T00:19:12;6.10;99.90
6788;DHT22;3431;47.966;10.268;2022-11-15T00:19:53;6.10;99.90
6788;DHT22;3431;47.966;10.268;2022-11-15T00:20:34;6.10;99.90
6788;DHT22;3431;47.966;10.268;2022-11-15T00:21:14;6.10;99.90
6788;DHT22;3431;47.966;10.268;2022-11-15T00:21:55;6.00;99.90
6788;DHT22;3431;47.966;10.268;2022-11-15T00:22:35;6.10;99.90
6788;DHT22;3431;47.966;10.268;2022-11-15T00:23:15;6.10;99.90
6788;DHT22;3431;47.966;10.268;2022-11-15T00:23:56;6.10;99.90
6788;DHT22;3431;47.966;10.268;2022-11-15T00:24:37;6.10;99.90
6788;DHT22;3431;47.966;10.268;2022-11-15T00:25:17;6.10;99.90
6788;DHT22;3431;47.966;10.268;2022-11-15T00:25:58;6.10;99.90
6788;DHT22;3431;47.966;10.268;2022-11-15T00:26:39;6.10;99.90
6788;DHT22;3431;47.966;10.268;2022-11-15T00:27:19;6.10;99.90
6788;DHT22;3431;47.966;10.268;2022-11-15T00:28:00;6.10;99.90
6788;DHT22;3431;47.966;10.268;2022-11-15T00:28:41;6.10;99.90
6788;DHT22;3431;47.966;10.268;2022-11-15T00:29:21;6.10;99.90
6788;DHT22;3431;47.966;10.268;2022-11-15T00:30:03;6.10;99.90
6788;DHT22;3431;47.966;10.268;2022-11-15T00:30:43;6.10;99.90
6788;DHT22;3431;47.966;10.268;2022-11-15T00:31:24;6.00;99.90
6788;DHT22;3431;47.966;10.268;2022-11-15T00:32:04;6.10;99.90
6788;DHT22;3431;47.966;10.268;2022-11-15T00:32:45;6.00;99.90
6788;DHT22;3431;47.966;10.268;2022-11-15T00:33:25;6.00;99.90
6788;DHT22;3431;47.966;10.268;2022-11-15T00:34:07;6.00;99.90
6788;DHT22;3431;47.966;10.268;2022-11-15T00:34:48;6.00;99.90
6788;DHT22;3431;47.966;10.268;2022-11-15T00:35:28;6.00;99.90
6788;DHT22;3431;47.966;10.268;2022-11-15T00:36:09;6.00;99.90
6788;DHT22;3431;47.966;10.268;2022-11-15T00:36:50;6.00;99.90
6788;DHT22;3431;47.966;10.268;2022-11-15T00:37:30;6.00;99.90
6788;DHT22;3431;47.966;10.268;2022-11-15T00:38:11;6.00;99.90
6788;DHT22;3431;47.966;10.268;2022-11-15T00:38:51;5.90;99.90
6788;DHT22;3431;47.966;10.268;2022-11-15T00:39:30;6.00;99.90
6788;DHT22;3431;47.966;10.268;2022-11-15T00:40:12;5.90;99.90
6788;DHT22;3431;47.966;10.268;2022-11-15T00:40:52;5.90;99.90
6788;DHT22;3431;47.966;10.268;2022-11-15T00:41:32;6.00;99.90
6788;DHT22;3431;47.966;10.268;2022-11-15T00:42:13;5.90;99.90
6788;DHT22;3431;47.966;10.268;2022-11-15T00:42:54;5.90;99.90
6788;DHT22;3431;47.966;10.268;2022-11-15T00:43:35;5.90;99.90
6788;DHT22;3431;47.966;10.268;2022-11-15T00:44:15;5.90;99.90
6788;DHT22;3431;47.966;10.268;2022-11-15T00:44:56;5.90;99.90
6788;DHT22;3431;47.966;10.268;2022-11-15T00:45:36;5.80;99.90
6788;DHT22;3431;47.966;10.268;2022-11-15T00:46:16;5.90;99.90
6788;DHT22;3431;47.966;10.268;2022-11-15T00:46:57;5.90;99.90
6788;DHT22;3431;47.966;10.268;2022-11-15T00:47:36;5.90;99.90
6788;DHT22;3431;47.966;10.268;2022-11-15T00:48:16;5.90;99.90
6788;DHT22;3431;47.966;10.268;2022-11-15T00:48:58;5.90;99.90
6788;DHT22;3431;47.966;10.268;2022-11-15T00:49:39;5.90;99.90
6788;DHT22;3431;47.966;10.268;2022-11-15T00:50:20;5.90;99.90
6788;DHT22;3431;47.966;10.268;2022-11-15T00:51:00;5.90;99.90
6788;DHT22;3431;47.966;10.268;2022-11-15T00:51:41;5.90;99.90
6788;DHT22;3431;47.966;10.268;2022-11-15T00:52:21;5.90;99.90
6788;DHT22;3431;47.966;10.268;2022-11-15T00:53:02;5.90;99.90
6788;DHT22;3431;47.966;10.268;2022-11-15T00:53:43;5.90;99.90
6788;DHT22;3431;47.966;10.268;2022-11-15T00:54:23;5.90;99.90
6788;DHT22;3431;47.966;10.268;2022-11-15T00:55:03;5.90;99.90
6788;DHT22;3431;47.966;10.268;2022-11-15T00:55:45;5.90;99.90
6788;DHT22;3431;47.966;10.268;2022-11-15T00:56:25;5.90;99.90
6788;DHT22;3431;47.966;10.268;2022-11-15T00:57:05;5.90;99.90
6788;DHT22;3431;47.966;10.268;2022-11-15T00:57:46;5.90;99.90
6788;DHT22;3431;47.966;10.268;2022-11-15T00:58:27;5.80;99.90
6788;DHT22;3431;47.966;10.268;2022-11-15T00:59:08;5.80;99.90
6788;DHT22;3431;47.966;10.268;2022-11-15T00:59:48;5.80;99.90
6788;DHT22;3431;47.966;10.268;2022-11-15T01:00:29;5.80;99.90
6788;DHT22;3431;47.966;10.268;2022-11-15T01:01:10;5.80;99.90
6788;DHT22;3431;47.966;10.268;2022-11-15T01:01:51;5.80;99.90
6788;DHT22;3431;47.966;10.268;2022-11-15T01:02:31;5.70;99.90
6788;DHT22;3431;47.966;10.268;2022-11-15T01:03:11;5.70;99.90
6788;DHT22;3431;47.966;10.268;2022-11-15T01:03:53;5.70;99.90
6788;DHT22;3431;47.966;10.268;2022-11-15T01:04:33;5.70;99.90
6788;DHT22;3431;47.966;10.268;2022-11-15T01:05:15;5.70;99.90
6788;DHT22;3431;47.966;10.268;2022-11-15T01:05:58;5.60;99.90
6788;DHT22;3431;47.966;10.268;2022-11-15T01:06:40;5.60;99.90
6788;DHT22;3431;47.966;10.268;2022-11-15T01:07:20;5.60;99.90
6788;DHT22;3431;47.966;10.268;2022-11-15T01:08:01;5.60;99.90
6788;DHT22;3431;47.966;10.268;2022-11-15T01:08:41;5.60;99.90
6788;DHT22;3431;47.966;10.268;2022-11-15T01:09:21;5.50;99.90
6788;DHT22;3431;47.966;10.268;2022-11-15T01:10:02;5.50;99.90
6788;DHT22;3431;47.966;10.268;2022-11-15T01:10:43;5.50;99.90
6788;DHT22;3431;47.966;10.268;2022-11-15T01:11:23;5.50;99.90
6788;DHT22;3431;47.966;10.268;2022-11-15T01:12:04;5.50;99.90
6788;DHT22;3431;47.966;10.268;2022-11-15T01:12:44;5.40;99.90
6788;DHT22;3431;47.966;10.268;2022-11-15T01:13:24;5.50;99.90
6788;DHT22;3431;47.966;10.268;2022-11-15T01:14:05;5.40;99.90
6788;DHT22;3431;47.966;10.268;2022-11-15T01:14:45;5.40;99.90
6788;DHT22;3431;47.966;10.268;2022-11-15T01:15:25;5.40;99.90
6788;DHT22;3431;47.966;10.268;2022-11-15T01:16:07;5.40;99.90
6788;DHT22;3431;47.966;10.268;2022-11-15T01:16:47;5.40;99.90
6788;DHT22;3431;47.966;10.268;2022-11-15T01:17:27;5.40;99.90
6788;DHT22;3431;47.966;10.268;2022-11-15T01:18:08;5.40;99.90
6788;DHT22;3431;47.966;10.268;2022-11-15T01:18:48;5.40;99.90
6788;DHT22;3431;47.966;10.268;2022-11-15T01:19:29;5.30;99.90
6788;DHT22;3431;47.966;10.268;2022-11-15T01:20:10;5.20;99.90
6788;DHT22;3431;47.966;10.268;2022-11-15T01:20:52;5.10;99.90
6788;DHT22;3431;47.966;10.268;2022-11-15T01:21:33;5.00;99.90
6788;DHT22;3431;47.966;10.268;2022-11-15T01:22:13;4.80;99.90
6788;DHT22;3431;47.966;10.268;2022-11-15T01:22:54;4.70;99.90
6788;DHT22;3431;47.966;10.268;2022-11-15T01:23:34;4.70;99.90
6788;DHT22;3431;47.966;10.268;2022-11-15T01:24:15;4.70;99.90
6788;DHT22;3431;47.966;10.268;2022-11-15T01:24:56;4.60;99.90
6788;DHT22;3431;47.966;10.268;2022-11-15T01:25:36;4.60;99.90
6788;DHT22;3431;47.966;10.268;2022-11-15T01:26:17;4.60;99.90
6788;DHT22;3431;47.966;10.268;2022-11-15T01:26:57;4.60;99.90
6788;DHT22;3431;47.966;10.268;2022-11-15T01:27:38;4.60;99.90
6788;DHT22;3431;47.966;10.268;2022-11-15T01:28:18;4.60;99.90
6788;DHT22;3431;47.966;10.268;2022-11-15T01:28:58;4.60;99.90
6788;DHT22;3431;47.966;10.268;2022-11-15T01:29:39;4.70;99.90
6788;DHT22;3431;47.966;10.268;2022-11-15T01:30:19;4.70;99.90
6788;DHT22;3431;47.966;10.268;2022-11-15T01:30:59;4.70;99.90
6788;DHT22;3431;47.966;10.268;2022-11-15T01:31:40;4.70;99.90
6788;DHT22;3431;47.966;10.268;2022-11-15T01:32:20;4.70;99.90
6788;DHT22;3431;47.966;10.268;2022-11-15T01:33:01;4.70;99.90
6788;DHT22;3431;47.966;10.268;2022-11-15T01:33:41;4.80;99.90
6788;DHT22;3431;47.966;10.268;2022-11-15T01:34:22;4.80;99.90
6788;DHT22;3431;47.966;10.268;2022-11-15T01:35:02;4.80;99.90
6788;DHT22;3431;47.966;10.268;2022-11-15T01:35:42;4.80;99.90
6788;DHT22;3431;47.966;10.268;2022-11-15T01:36:25;4.80;99.90
6788;DHT22;3431;47.966;10.268;2022-11-15T01:37:05;4.90;99.90
6788;DHT22;3431;47.966;10.268;2022-11-15T01:37:46;4.90;99.90
6788;DHT22;3431;47.966;10.268;2022-11-15T01:38:26;4.90;99.90
6788;DHT22;3431;47.966;10.268;2022-11-15T01:39:07;4.90;99.90
6788;DHT22;3431;47.966;10.268;2022-11-15T01:39:48;4.90;99.90
6788;DHT22;3431;47.966;10.268;2022-11-15T01:40:28;4.90;99.90
6788;DHT22;3431;47.966;10.268;2022-11-15T01:41:15;4.90;99.90
6788;DHT22;3431;47.966;10.268;2022-11-15T01:41:57;4.90;99.90
6788;DHT22;3431;47.966;10.268;2022-11-15T01:42:37;4.90;99.90
6788;DHT22;3431;47.966;10.268;2022-11-15T01:43:19;4.90;99.90
6788;DHT22;3431;47.966;10.268;2022-11-15T01:45:16;4.90;99.90
6788;DHT22;3431;47.966;10.268;2022-11-15T01:46:00;4.90;99.90
6788;DHT22;3431;47.966;10.268;2022-11-15T01:46:43;4.90;99.90
6788;DHT22;3431;47.966;10.268;2022-11-15T01:47:28;4.90;99.90
6788;DHT22;3431;47.966;10.268;2022-11-15T01:48:10;4.90;99.90
6788;DHT22;3431;47.966;10.268;2022-11-15T01:48:53;4.90;99.90
6788;DHT22;3431;47.966;10.268;2022-11-15T01:49:35;4.90;99.90
6788;DHT22;3431;47.966;10.268;2022-11-15T01:50:21;4.80;99.90
6788;DHT22;3431;47.966;10.268;2022-11-15T01:51:06;4.90;99.90
6788;DHT22;3431;47.966;10.268;2022-11-15T01:51:49;4.90;99.90
6788;DHT22;3431;47.966;10.268;2022-11-15T01:52:31;4.80;99.90
6788;DHT22;3431;47.966;10.268;2022-11-15T01:53:14;4.90;99.90
6788;DHT22;3431;47.966;10.268;2022-11-15T01:53:58;4.90;99.90
6788;DHT22;3431;47.966;10.268;2022-11-15T01:54:39;4.80;99.90
6788;DHT22;3431;47.966;10.268;2022-11-15T01:55:21;4.90;99.90
6788;DHT22;3431;47.966;10.268;2022-11-15T01:56:03;4.90;99.90
6788;DHT22;3431;47.966;10.268;2022-11-15T01:56:46;4.90;99.90
6788;DHT22;3431;47.966;10.268;2022-11-15T01:57:28;4.90;99.90
6788;DHT22;3431;47.966;10.268;2022-11-15T01:58:08;4.90;99.90
6788;DHT22;3431;47.966;10.268;2022-11-15T01:58:49;4.90;99.90
6788;DHT22;3431;47.966;10.268;2022-11-15T01:59:31;4.90;99.90
6788;DHT22;3431;47.966;10.268;2022-11-15T02:00:13;4.90;99.90
6788;DHT22;3431;47.966;10.268;2022-11-15T02:00:54;4.90;99.90
6788;DHT22;3431;47.966;10.268;2022-11-15T02:01:34;4.90;99.90
6788;DHT22;3431;47.966;10.268;2022-11-15T02:02:14;4.80;99.90
6788;DHT22;3431;47.966;10.268;2022-11-15T02:02:55;4.80;99.90
6788;DHT22;3431;47.966;10.268;2022-11-15T02:03:39;4.80;99.90
6788;DHT22;3431;47.966;10.268;2022-11-15T02:04:24;4.80;99.90
6788;DHT22;3431;47.966;10.268;2022-11-15T02:05:07;4.80;99.90
6788;DHT22;3431;47.966;10.268;2022-11-15T02:05:47;4.80;99.90
6788;DHT22;3431;47.966;10.268;2022-11-15T02:06:29;4.80;99.90
6788;DHT22;3431;47.966;10.268;2022-11-15T02:07:15;4.70;99.90
6788;DHT22;3431;47.966;10.268;2022-11-15T02:07:57;4.80;99.90
6788;DHT22;3431;47.966;10.268;2022-11-15T02:08:37;4.80;99.90
6788;DHT22;3431;47.966;10.268;2022-11-15T02:09:18;4.70;99.90
6788;DHT22;3431;47.966;10.268;2022-11-15T02:10:02;4.80;99.90
6788;DHT22;3431;47.966;10.268;2022-11-15T02:10:44;4.70;99.90
6788;DHT22;3431;47.966;10.268;2022-11-15T02:11:25;4.80;99.90
6788;DHT22;3431;47.966;10.268;2022-11-15T02:12:06;4.70;99.90
6788;DHT22;3431;47.966;10.268;2022-11-15T02:12:48;4.70;99.90
6788;DHT22;3431;47.966;10.268;2022-11-15T02:13:29;4.70;99.90
6788;DHT22;3431;47.966;10.268;2022-11-15T02:14:10;4.70;99.90
6788;DHT22;3431;47.966;10.268;2022-11-15T02:14:54;4.70;99.90
6788;DHT22;3431;47.966;10.268;2022-11-15T02:15:40;4.70;99.90
6788;DHT22;3431;47.966;10.268;2022-11-15T02:16:33;4.70;99.90
6788;DHT22;3431;47.966;10.268;2022-11-15T02:17:31;4.70;99.90
6788;DHT22;3431;47.966;10.268;2022-11-15T02:18:19;4.70;99.90
6788;DHT22;3431;47.966;10.268;2022-11-15T02:19:13;4.70;99.90
6788;DHT22;3431;47.966;10.268;2022-11-15T02:20:27;4.70;99.90
6788;DHT22;3431;47.966;10.268;2022-11-15T02:21:17;4.70;99.90
6788;DHT22;3431;47.966;10.268;2022-11-15T02:22:14;4.70;99.90
6788;DHT22;3431;47.966;10.268;2022-11-15T02:23:13;4.70;99.90
6788;DHT22;3431;47.966;10.268;2022-11-15T02:24:25;4.70;99.90
6788;DHT22;3431;47.966;10.268;2022-11-15T02:25:25;4.70;99.90
6788;DHT22;3431;47.966;10.268;2022-11-15T02:28:48;4.70;99.90
6788;DHT22;3431;47.966;10.268;2022-11-15T02:29:42;4.80;99.90
6788;DHT22;3431;47.966;10.268;2022-11-15T02:30:37;4.80;99.90
6788;DHT22;3431;47.966;10.268;2022-11-15T02:31:22;4.70;99.90
6788;DHT22;3431;47.966;10.268;2022-11-15T02:32:10;4.70;99.90
6788;DHT22;3431;47.966;10.268;2022-11-15T02:32:57;4.70;99.90
6788;DHT22;3431;47.966;10.268;2022-11-15T02:33:44;4.70;99.90
6788;DHT22;3431;47.966;10.268;2022-11-15T02:34:35;4.70;99.90
6788;DHT22;3431;47.966;10.268;2022-11-15T02:35:29;4.70;99.90
6788;DHT22;3431;47.966;10.268;2022-11-15T02:36:21;4.70;99.90
6788;DHT22;3431;47.966;10.268;2022-11-15T02:37:11;4.70;99.90
6788;DHT22;3431;47.966;10.268;2022-11-15T02:37:57;4.70;99.90
6788;DHT22;3431;47.966;10.268;2022-11-15T02:38:44;4.70;99.90
6788;DHT22;3431;47.966;10.268;2022-11-15T02:39:31;4.70;99.90
6788;DHT22;3431;47.966;10.268;2022-11-15T02:40:26;4.70;99.90
6788;DHT22;3431;47.966;10.268;2022-11-15T02:41:10;4.70;99.90
6788;DHT22;3431;47.966;10.268;2022-11-15T02:41:57;4.70;99.90
6788;DHT22;3431;47.966;10.268;2022-11-15T02:42:44;4.60;99.90
6788;DHT22;3431;47.966;10.268;2022-11-15T02:43:47;4.70;99.90
6788;DHT22;3431;47.966;10.268;2022-11-15T02:44:40;4.70;99.90
6788;DHT22;3431;47.966;10.268;2022-11-15T02:45:28;4.60;99.90
6788;DHT22;3431;47.966;10.268;2022-11-15T02:46:16;4.70;99.90
6788;DHT22;3431;47.966;10.268;2022-11-15T02:47:00;4.70;99.90
6788;DHT22;3431;47.966;10.268;2022-11-15T02:47:56;4.70;99.90
6788;DHT22;3431;47.966;10.268;2022-11-15T02:48:39;4.70;99.90
6788;DHT22;3431;47.966;10.268;2022-11-15T02:49:19;4.70;99.90
6788;DHT22;3431;47.966;10.268;2022-11-15T02:50:03;4.70;99.90
6788;DHT22;3431;47.966;10.268;2022-11-15T02:50:46;4.80;99.90
6788;DHT22;3431;47.966;10.268;2022-11-15T02:51:28;4.80;99.90
6788;DHT22;3431;47.966;10.268;2022-11-15T02:52:08;4.80;99.90
6788;DHT22;3431;47.966;10.268;2022-11-15T02:52:48;4.80;99.90
6788;DHT22;3431;47.966;10.268;2022-11-15T02:53:29;4.80;99.90
6788;DHT22;3431;47.966;10.268;2022-11-15T02:54:12;4.80;99.90
6788;DHT22;3431;47.966;10.268;2022-11-15T02:54:55;4.90;99.90
6788;DHT22;3431;47.966;10.268;2022-11-15T02:55:37;4.80;99.90
6788;DHT22;3431;47.966;10.268;2022-11-15T02:56:18;4.80;99.90
6788;DHT22;3431;47.966;10.268;2022-11-15T02:57:02;4.80;99.90
6788;DHT22;3431;47.966;10.268;2022-11-15T02:57:52;4.80;99.90
6788;DHT22;3431;47.966;10.268;2022-11-15T02:58:52;4.80;99.90
6788;DHT22;3431;47.966;10.268;2022-11-15T02:59:56;4.80;99.90
6788;DHT22;3431;47.966;10.268;2022-11-15T03:00:44;4.80;99.90
6788;DHT22;3431;47.966;10.268;2022-11-15T03:01:38;4.80;99.90
6788;DHT22;3431;47.966;10.268;2022-11-15T03:02:32;4.80;99.90
6788;DHT22;3431;47.966;10.268;2022-11-15T03:03:36;4.90;99.90
6788;DHT22;3431;47.966;10.268;2022-11-15T03:04:24;4.90;99.90
6788;DHT22;3431;47.966;10.268;2022-11-15T03:05:17;4.80;99.90
6788;DHT22;3431;47.966;10.268;2022-11-15T03:06:06;4.80;99.90
6788;DHT22;3431;47.966;10.268;2022-11-15T03:06:53;4.80;99.90
6788;DHT22;3431;47.966;10.268;2022-11-15T03:07:40;4.80;99.90
6788;DHT22;3431;47.966;10.268;2022-11-15T03:08:30;4.70;99.90
6788;DHT22;3431;47.966;10.268;2022-11-15T03:09:17;4.70;99.90
6788;DHT22;3431;47.966;10.268;2022-11-15T03:10:06;4.70;99.90
6788;DHT22;3431;47.966;10.268;2022-11-15T03:10:54;4.70;99.90
6788;DHT22;3431;47.966;10.268;2022-11-15T03:11:40;4.70;99.90
6788;DHT22;3431;47.966;10.268;2022-11-15T03:12:34;4.70;99.90
6788;DHT22;3431;47.966;10.268;2022-11-15T03:13:23;4.70;99.90
6788;DHT22;3431;47.966;10.268;2022-11-15T03:14:11;4.70;99.90
6788;DHT22;3431;47.966;10.268;2022-11-15T03:14:58;4.60;99.90
6788;DHT22;3431;47.966;10.268;2022-11-15T03:15:45;4.60;99.90
6788;DHT22;3431;47.966;10.268;2022-11-15T03:16:36;4.60;99.90
6788;DHT22;3431;47.966;10.268;2022-11-15T03:17:23;4.60;99.90
6788;DHT22;3431;47.966;10.268;2022-11-15T03:18:12;4.50;99.90
6788;DHT22;3431;47.966;10.268;2022-11-15T03:18:57;4.60;99.90
6788;DHT22;3431;47.966;10.268;2022-11-15T03:19:44;4.50;99.90
6788;DHT22;3431;47.966;10.268;2022-11-15T03:20:26;4.40;99.90
6788;DHT22;3431;47.966;10.268;2022-11-15T03:21:08;4.40;99.90
6788;DHT22;3431;47.966;10.268;2022-11-15T03:21:51;4.40;99.90
6788;DHT22;3431;47.966;10.268;2022-11-15T03:22:35;4.40;99.90
6788;DHT22;3431;47.966;10.268;2022-11-15T03:23:17;4.40;99.90
6788;DHT22;3431;47.966;10.268;2022-11-15T03:23:58;4.40;99.90
6788;DHT22;3431;47.966;10.268;2022-11-15T03:24:41;4.30;99.90
6788;DHT22;3431;47.966;10.268;2022-11-15T03:25:25;4.30;99.90
6788;DHT22;3431;47.966;10.268;2022-11-15T03:26:11;4.30;99.90
6788;DHT22;3431;47.966;10.268;2022-11-15T03:26:54;4.30;99.90
6788;DHT22;3431;47.966;10.268;2022-11-15T03:27:39;4.30;99.90
6788;DHT22;3431;47.966;10.268;2022-11-15T03:28:25;4.30;99.90
6788;DHT22;3431;47.966;10.268;2022-11-15T03:29:12;4.30;99.90
6788;DHT22;3431;47.966;10.268;2022-11-15T03:29:58;4.30;99.90
6788;DHT22;3431;47.966;10.268;2022-11-15T03:30:40;4.30;99.90
6788;DHT22;3431;47.966;10.268;2022-11-15T03:31:23;4.30;99.90
6788;DHT22;3431;47.966;10.268;2022-11-15T03:32:31;4.30;99.90
6788;DHT22;3431;47.966;10.268;2022-11-15T03:33:16;4.30;99.90
6788;DHT22;3431;47.966;10.268;2022-11-15T03:33:58;4.20;99.90
6788;DHT22;3431;47.966;10.268;2022-11-15T03:34:41;4.30;99.90
6788;DHT22;3431;47.966;10.268;2022-11-15T03:35:24;4.20;99.90
6788;DHT22;3431;47.966;10.268;2022-11-15T03:36:05;4.20;99.90
6788;DHT22;3431;47.966;10.268;2022-11-15T03:36:47;4.20;99.90
6788;DHT22;3431;47.966;10.268;2022-11-15T03:37:33;4.30;99.90
6788;DHT22;3431;47.966;10.268;2022-11-15T03:38:19;4.30;99.90
6788;DHT22;3431;47.966;10.268;2022-11-15T03:39:06;4.20;99.90
6788;DHT22;3431;47.966;10.268;2022-11-15T03:39:47;4.30;99.90
6788;DHT22;3431;47.966;10.268;2022-11-15T03:40:40;4.30;99.90
6788;DHT22;3431;47.966;10.268;2022-11-15T03:41:24;4.30;99.90
6788;DHT22;3431;47.966;10.268;2022-11-15T03:42:15;4.30;99.90
6788;DHT22;3431;47.966;10.268;2022-11-15T03:43:02;4.30;99.90
6788;DHT22;3431;47.966;10.268;2022-11-15T03:43:49;4.30;99.90
6788;DHT22;3431;47.966;10.268;2022-11-15T03:44:39;4.30;99.90
6788;DHT22;3431;47.966;10.268;2022-11-15T03:45:24;4.30;99.90
6788;DHT22;3431;47.966;10.268;2022-11-15T03:46:13;4.30;99.90
6788;DHT22;3431;47.966;10.268;2022-11-15T03:46:59;4.30;99.90
6788;DHT22;3431;47.966;10.268;2022-11-15T03:47:47;4.30;99.90
6788;DHT22;3431;47.966;10.268;2022-11-15T03:48:33;4.30;99.90
6788;DHT22;3431;47.966;10.268;2022-11-15T03:49:19;4.30;99.90
6788;DHT22;3431;47.966;10.268;2022-11-15T03:50:05;4.30;99.90
6788;DHT22;3431;47.966;10.268;2022-11-15T03:50:47;4.30;99.90
6788;DHT22;3431;47.966;10.268;2022-11-15T03:51:29;4.30;99.90
6788;DHT22;3431;47.966;10.268;2022-11-15T03:52:10;4.30;99.90
6788;DHT22;3431;47.966;10.268;2022-11-15T03:52:51;4.30;99.90
6788;DHT22;3431;47.966;10.268;2022-11-15T03:53:34;4.30;99.90
6788;DHT22;3431;47.966;10.268;2022-11-15T03:54:14;4.20;99.90
6788;DHT22;3431;47.966;10.268;2022-11-15T03:54:56;4.20;99.90
6788;DHT22;3431;47.966;10.268;2022-11-15T03:55:36;4.20;99.90
6788;DHT22;3431;47.966;10.268;2022-11-15T03:56:17;4.20;99.90
6788;DHT22;3431;47.966;10.268;2022-11-15T03:56:57;4.20;99.90
6788;DHT22;3431;47.966;10.268;2022-11-15T03:57:37;4.20;99.90
6788;DHT22;3431;47.966;10.268;2022-11-15T03:58:19;4.20;99.90
6788;DHT22;3431;47.966;10.268;2022-11-15T03:58:58;4.10;99.90
6788;DHT22;3431;47.966;10.268;2022-11-15T03:59:38;4.20;99.90
6788;DHT22;3431;47.966;10.268;2022-11-15T04:00:20;4.20;99.90
6788;DHT22;3431;47.966;10.268;2022-11-15T04:01:00;4.20;99.90
6788;DHT22;3431;47.966;10.268;2022-11-15T04:01:41;4.10;99.90
6788;DHT22;3431;47.966;10.268;2022-11-15T04:02:21;4.10;99.90
6788;DHT22;3431;47.966;10.268;2022-11-15T04:03:03;4.10;99.90
6788;DHT22;3431;47.966;10.268;2022-11-15T04:03:44;4.10;99.90
6788;DHT22;3431;47.966;10.268;2022-11-15T04:04:25;4.10;99.90
6788;DHT22;3431;47.966;10.268;2022-11-15T04:05:05;4.00;99.90
6788;DHT22;3431;47.966;10.268;2022-11-15T04:05:47;4.00;99.90
6788;DHT22;3431;47.966;10.268;2022-11-15T04:06:26;3.90;99.90
6788;DHT22;3431;47.966;10.268;2022-11-15T04:07:06;3.90;99.90
6788;DHT22;3431;47.966;10.268;2022-11-15T04:07:47;3.80;99.90
6788;DHT22;3431;47.966;10.268;2022-11-15T04:08:27;3.80;99.90
6788;DHT22;3431;47.966;10.268;2022-11-15T04:09:07;3.80;99.90
6788;DHT22;3431;47.966;10.268;2022-11-15T04:09:48;3.80;99.90
6788;DHT22;3431;47.966;10.268;2022-11-15T04:10:43;3.70;99.90
6788;DHT22;3431;47.966;10.268;2022-11-15T04:11:24;3.70;99.90
6788;DHT22;3431;47.966;10.268;2022-11-15T04:12:05;3.70;99.90
6788;DHT22;3431;47.966;10.268;2022-11-15T04:12:45;3.70;99.90
6788;DHT22;3431;47.966;10.268;2022-11-15T04:13:27;3.70;99.90
6788;DHT22;3431;47.966;10.268;2022-11-15T04:14:08;3.70;99.90
6788;DHT22;3431;47.966;10.268;2022-11-15T04:14:47;3.70;99.90
6788;DHT22;3431;47.966;10.268;2022-11-15T04:15:46;3.70;99.90
6788;DHT22;3431;47.966;10.268;2022-11-15T04:16:26;3.80;99.90
6788;DHT22;3431;47.966;10.268;2022-11-15T04:17:07;3.80;99.90
6788;DHT22;3431;47.966;10.268;2022-11-15T04:17:48;3.80;99.90
6788;DHT22;3431;47.966;10.268;2022-11-15T04:18:31;3.80;99.90
6788;DHT22;3431;47.966;10.268;2022-11-15T04:19:11;3.90;99.90
6788;DHT22;3431;47.966;10.268;2022-11-15T04:20:13;3.80;99.90
6788;DHT22;3431;47.966;10.268;2022-11-15T04:21:12;3.90;99.90
6788;DHT22;3431;47.966;10.268;2022-11-15T04:22:10;3.80;99.90
6788;DHT22;3431;47.966;10.268;2022-11-15T04:23:12;3.80;99.90
6788;DHT22;3431;47.966;10.268;2022-11-15T04:24:11;3.80;99.90
6788;DHT22;3431;47.966;10.268;2022-11-15T04:24:55;3.80;99.90
6788;DHT22;3431;47.966;10.268;2022-11-15T04:25:35;3.80;99.90
6788;DHT22;3431;47.966;10.268;2022-11-15T04:26:16;3.80;99.90
6788;DHT22;3431;47.966;10.268;2022-11-15T04:26:59;3.80;99.90
6788;DHT22;3431;47.966;10.268;2022-11-15T04:27:39;3.80;99.90
6788;DHT22;3431;47.966;10.268;2022-11-15T04:28:19;3.80;99.90
6788;DHT22;3431;47.966;10.268;2022-11-15T04:29:00;3.80;99.90
6788;DHT22;3431;47.966;10.268;2022-11-15T04:29:59;3.80;99.90
6788;DHT22;3431;47.966;10.268;2022-11-15T04:30:39;3.80;99.90
6788;DHT22;3431;47.966;10.268;2022-11-15T04:31:20;3.80;99.90
6788;DHT22;3431;47.966;10.268;2022-11-15T04:32:00;3.70;99.90
6788;DHT22;3431;47.966;10.268;2022-11-15T04:32:41;3.70;99.90
6788;DHT22;3431;47.966;10.268;2022-11-15T04:33:22;3.70;99.90
6788;DHT22;3431;47.966;10.268;2022-11-15T04:34:04;3.70;99.90
6788;DHT22;3431;47.966;10.268;2022-11-15T04:34:45;3.70;99.90
6788;DHT22;3431;47.966;10.268;2022-11-15T04:35:25;3.70;99.90
6788;DHT22;3431;47.966;10.268;2022-11-15T04:36:05;3.70;99.90
6788;DHT22;3431;47.966;10.268;2022-11-15T04:37:04;3.70;99.90
6788;DHT22;3431;47.966;10.268;2022-11-15T04:37:56;3.70;99.90
6788;DHT22;3431;47.966;10.268;2022-11-15T04:38:37;3.70;99.90
6788;DHT22;3431;47.966;10.268;2022-11-15T04:39:17;3.60;99.90
6788;DHT22;3431;47.966;10.268;2022-11-15T04:39:59;3.60;99.90
6788;DHT22;3431;47.966;10.268;2022-11-15T04:40:38;3.60;99.90
6788;DHT22;3431;47.966;10.268;2022-11-15T04:41:20;3.60;99.90
6788;DHT22;3431;47.966;10.268;2022-11-15T04:41:59;3.60;99.90
6788;DHT22;3431;47.966;10.268;2022-11-15T04:42:40;3.60;99.90
6788;DHT22;3431;47.966;10.268;2022-11-15T04:43:22;3.60;99.90
6788;DHT22;3431;47.966;10.268;2022-11-15T04:44:02;3.60;99.90
6788;DHT22;3431;47.966;10.268;2022-11-15T04:44:43;3.60;99.90
6788;DHT22;3431;47.966;10.268;2022-11-15T04:45:23;3.60;99.90
6788;DHT22;3431;47.966;10.268;2022-11-15T04:46:04;3.50;99.90
6788;DHT22;3431;47.966;10.268;2022-11-15T04:46:44;3.50;99.90
6788;DHT22;3431;47.966;10.268;2022-11-15T04:47:24;3.50;99.90
6788;DHT22;3431;47.966;10.268;2022-11-15T04:48:07;3.50;99.90